createdAt,value
2023-03-17T00:00:11.052Z,47.26
2023-03-17T00:03:23.546Z,49.33
2023-03-17T00:06:30.055Z,48.53
2023-03-17T00:09:34.557Z,48.74
2023-03-17T00:12:38.402Z,47.74
2023-03-17T00:15:42.033Z,49.54
2023-03-17T00:18:46.532Z,47.12
2023-03-17T00:21:50.600Z,47.36
2023-03-17T00:24:54.246Z,47.26
2023-03-17T00:27:59.155Z,46.78
2023-03-17T00:31:12.839Z,46.22
2023-03-17T00:34:18.151Z,46.71
2023-03-17T00:37:23.860Z,48.63
2023-03-17T00:40:30.345Z,42.89
2023-03-17T00:43:34.755Z,42.21
2023-03-17T00:46:39.051Z,41.60
2023-03-17T00:49:50.085Z,39.11
2023-03-17T00:52:54.974Z,40.34
2023-03-17T00:55:58.548Z,39.69
2023-03-17T00:59:02.324Z,42.33
2023-03-17T01:02:06.295Z,40.15
2023-03-17T01:05:11.438Z,38.62
2023-03-17T01:08:15.627Z,41.83
2023-03-17T01:11:20.660Z,38.17
2023-03-17T01:14:25.434Z,38.91
2023-03-17T01:17:29.908Z,35.15
2023-03-17T01:20:33.975Z,37.48
2023-03-17T01:23:38.221Z,35.56
2023-03-17T01:26:42.255Z,36.96
2023-03-17T01:29:45.882Z,35.34
2023-03-17T01:32:50.672Z,35.27
2023-03-17T01:35:54.790Z,32.65
2023-03-17T01:38:59.507Z,32.05
2023-03-17T01:42:03.207Z,34.08
2023-03-17T01:45:08.755Z,33.58
2023-03-17T01:48:12.621Z,36.08
2023-03-17T01:51:23.872Z,32.43
2023-03-17T01:54:31.855Z,32.58
2023-03-17T01:57:51.541Z,33.38
2023-03-17T02:00:56.349Z,33.58
2023-03-17T02:04:00.394Z,33.63
2023-03-17T02:07:05.994Z,32.92
2023-03-17T02:10:10.559Z,36.09
2023-03-17T02:13:15.993Z,34.12
2023-03-17T02:16:19.385Z,34.80
2023-03-17T02:19:24.043Z,33.28
2023-03-17T02:22:28.758Z,31.27
2023-03-17T02:25:32.429Z,33.46
2023-03-17T02:28:36.266Z,33.58
2023-03-17T02:31:39.675Z,33.93
2023-03-17T02:34:44.308Z,32.16
2023-03-17T02:37:47.854Z,31.78
2023-03-17T02:40:51.248Z,34.59
2023-03-17T02:43:55.638Z,33.13
2023-03-17T02:46:59.252Z,31.25
2023-03-17T02:50:03.090Z,31.15
2023-03-17T02:53:06.407Z,31.69
2023-03-17T02:56:10.875Z,32.22
2023-03-17T02:59:14.514Z,35.64
2023-03-17T03:02:17.980Z,34.21
2023-03-17T03:05:21.916Z,36.18
2023-03-17T03:08:26.180Z,35.40
2023-03-17T03:11:30.224Z,34.66
2023-03-17T03:14:34.352Z,36.07
2023-03-17T03:17:38.604Z,35.75
2023-03-17T03:20:45.856Z,37.09
2023-03-17T03:23:49.699Z,37.68
2023-03-17T03:26:53.321Z,37.35
2023-03-17T03:29:56.731Z,38.55
2023-03-17T03:33:00.245Z,39.21
2023-03-17T03:36:06.653Z,34.26
2023-03-17T03:39:14.205Z,38.94
2023-03-17T03:42:18.975Z,36.22
2023-03-17T03:45:22.972Z,34.75
2023-03-17T03:48:27.413Z,35.78
2023-03-17T03:51:31.349Z,34.03
2023-03-17T03:54:35.688Z,37.21
2023-03-17T03:57:39.257Z,37.42
2023-03-17T04:00:43.382Z,38.50
2023-03-17T04:03:48.003Z,38.25
2023-03-17T04:06:51.411Z,37.59
2023-03-17T04:09:55.398Z,38.13
2023-03-17T04:12:59.595Z,36.87
2023-03-17T04:16:04.106Z,39.09
2023-03-17T04:19:09.923Z,38.44
2023-03-17T04:22:14.312Z,39.37
2023-03-17T04:25:18.864Z,41.95
2023-03-17T04:28:23.208Z,41.34
2023-03-17T04:31:27.163Z,40.94
2023-03-17T04:34:31.552Z,38.26
2023-03-17T04:37:35.556Z,36.88
2023-03-17T04:40:39.988Z,36.62
2023-03-17T04:43:43.615Z,39.60
2023-03-17T04:46:48.023Z,38.83
2023-03-17T04:49:51.661Z,38.18
2023-03-17T04:52:55.868Z,37.13
2023-03-17T04:56:00.256Z,39.65
2023-03-17T04:59:04.996Z,38.56
2023-03-17T05:02:12.198Z,40.67
2023-03-17T05:05:16.432Z,40.87
2023-03-17T05:08:21.018Z,39.26
2023-03-17T05:11:27.871Z,38.78
2023-03-17T05:14:31.591Z,37.31
2023-03-17T05:17:35.091Z,37.02
2023-03-17T05:20:38.453Z,39.41
2023-03-17T05:23:42.538Z,38.35
2023-03-17T05:26:46.307Z,40.08
2023-03-17T05:29:50.632Z,37.15
2023-03-17T05:32:54.905Z,37.36
2023-03-17T05:35:59.328Z,38.47
2023-03-17T05:39:03.300Z,41.42
2023-03-17T05:42:07.208Z,39.45
2023-03-17T05:45:11.413Z,38.11
2023-03-17T05:48:15.441Z,40.76
2023-03-17T05:51:19.676Z,40.58
2023-03-17T05:54:23.683Z,41.58
2023-03-17T05:57:27.176Z,40.79
2023-03-17T06:00:31.992Z,41.55
2023-03-17T06:03:38.996Z,40.11
2023-03-17T06:06:42.356Z,41.87
2023-03-17T06:09:46.439Z,43.32
2023-03-17T06:12:49.971Z,45.03
2023-03-17T06:15:53.686Z,44.20
2023-03-17T06:18:57.489Z,43.06
2023-03-17T06:22:01.333Z,42.23
2023-03-17T06:25:05.852Z,42.34
2023-03-17T06:28:09.409Z,45.28
2023-03-17T06:31:13.092Z,41.63
2023-03-17T06:34:20.547Z,43.41
2023-03-17T06:37:24.095Z,42.82
2023-03-17T06:40:27.593Z,43.72
2023-03-17T06:43:32.180Z,43.58
2023-03-17T06:46:36.128Z,42.29
2023-03-17T06:49:39.492Z,41.70
2023-03-17T06:52:43.335Z,42.24
2023-03-17T06:55:49.021Z,43.17
2023-03-17T06:58:53.428Z,42.87
2023-03-17T07:01:58.553Z,43.47
2023-03-17T07:05:03.124Z,41.94
2023-03-17T07:08:09.012Z,42.34
2023-03-17T07:11:13.362Z,42.07
2023-03-17T07:14:17.456Z,44.10
2023-03-17T07:17:21.477Z,42.35
2023-03-17T07:20:25.536Z,45.47
2023-03-17T07:23:30.431Z,42.73
2023-03-17T07:26:34.955Z,42.15
2023-03-17T07:29:38.514Z,41.39
2023-03-17T07:32:42.558Z,44.86
2023-03-17T07:35:46.357Z,44.89
2023-03-17T07:38:49.974Z,44.04
2023-03-17T07:41:55.977Z,44.49
2023-03-17T07:44:59.987Z,44.82
2023-03-17T07:48:07.248Z,45.12
2023-03-17T07:51:15.066Z,41.75
2023-03-17T07:54:19.670Z,44.20
2023-03-17T07:57:23.806Z,43.36
2023-03-17T08:00:28.867Z,43.26
2023-03-17T08:03:33.244Z,42.56
2023-03-17T08:06:38.028Z,40.96
2023-03-17T08:09:41.892Z,42.61
2023-03-17T08:12:46.428Z,43.38
2023-03-17T08:15:50.670Z,42.45
2023-03-17T08:18:54.305Z,44.12
2023-03-17T08:21:58.899Z,42.21
2023-03-17T08:25:05.232Z,44.81
2023-03-17T08:28:08.658Z,44.08
2023-03-17T08:31:14.215Z,44.04
2023-03-17T08:34:18.101Z,44.28
2023-03-17T08:37:23.259Z,45.94
2023-03-17T08:40:27.233Z,47.65
2023-03-17T08:43:32.113Z,47.08
2023-03-17T08:46:36.588Z,48.01
2023-03-17T08:49:40.119Z,49.09
2023-03-17T08:52:43.725Z,50.09
2023-03-17T08:55:47.951Z,50.30
2023-03-17T08:58:52.698Z,49.25
2023-03-17T09:02:06.274Z,51.55
2023-03-17T09:05:14.725Z,50.72
2023-03-17T09:08:18.764Z,51.05
2023-03-17T09:11:24.384Z,50.10
2023-03-17T09:14:37.327Z,50.12
2023-03-17T09:17:46.690Z,50.37
2023-03-17T09:20:50.861Z,51.45
2023-03-17T09:23:55.018Z,50.25
2023-03-17T09:27:00.844Z,51.28
2023-03-17T09:30:05.989Z,52.17
2023-03-17T09:33:16.495Z,50.91
2023-03-17T09:36:21.246Z,51.08
2023-03-17T09:39:25.281Z,51.04
2023-03-17T09:42:34.246Z,50.87
2023-03-17T09:45:41.671Z,50.02
2023-03-17T09:49:01.172Z,50.57
2023-03-17T09:52:05.288Z,50.69
2023-03-17T09:55:13.923Z,49.74
2023-03-17T09:58:22.832Z,50.43
2023-03-17T10:01:27.328Z,50.51
2023-03-17T10:04:31.866Z,50.63
2023-03-17T10:07:42.770Z,50.18
2023-03-17T10:10:52.968Z,50.38
2023-03-17T10:14:06.384Z,52.25
2023-03-17T10:17:24.317Z,52.10
2023-03-17T10:20:37.244Z,50.86
2023-03-17T10:23:41.412Z,51.48
2023-03-17T10:26:51.154Z,50.68
2023-03-17T10:29:55.125Z,51.54
2023-03-17T10:33:01.018Z,52.66
2023-03-17T10:36:11.701Z,52.34
2023-03-17T10:39:18.543Z,53.44
2023-03-17T10:42:24.656Z,52.60
2023-03-17T10:45:30.899Z,52.53
2023-03-17T10:48:39.373Z,54.96
2023-03-17T10:51:47.179Z,55.48
2023-03-17T10:54:54.219Z,55.93
2023-03-17T10:58:08.996Z,56.38
2023-03-17T11:01:22.125Z,58.03
2023-03-17T11:04:33.182Z,57.39
2023-03-17T11:07:39.521Z,59.31
2023-03-17T11:10:43.968Z,58.20
2023-03-17T11:13:48.009Z,58.33
2023-03-17T11:17:00.044Z,54.25
2023-03-17T11:20:16.248Z,55.18
2023-03-17T11:23:24.473Z,54.59
2023-03-17T11:26:31.271Z,53.83
2023-03-17T11:29:50.231Z,54.60
2023-03-17T11:33:02.538Z,54.90
2023-03-17T11:36:10.145Z,54.02
2023-03-17T11:39:18.010Z,52.79
2023-03-17T11:42:42.250Z,52.94
2023-03-17T11:45:51.520Z,52.46
2023-03-17T11:49:04.755Z,53.30
2023-03-17T11:52:18.224Z,52.38
2023-03-17T11:55:46.478Z,52.91
2023-03-17T11:59:07.812Z,52.17
2023-03-17T12:02:30.644Z,53.28
2023-03-17T12:05:35.201Z,54.00
2023-03-17T12:08:46.672Z,54.40
2023-03-17T12:11:51.528Z,53.93
2023-03-17T12:14:57.562Z,53.67
2023-03-17T12:18:13.056Z,54.29
2023-03-17T12:21:33.625Z,53.48
2023-03-17T12:24:44.394Z,52.67
2023-03-17T12:27:54.014Z,52.07
2023-03-17T12:31:08.917Z,50.68
2023-03-17T12:34:51.850Z,52.25
2023-03-17T12:38:16.832Z,51.52
2023-03-17T12:41:23.468Z,51.42
2023-03-17T12:44:35.202Z,51.46
2023-03-17T12:47:57.575Z,51.71
2023-03-17T12:51:10.717Z,51.41
2023-03-17T12:54:22.481Z,51.72
2023-03-17T12:57:31.603Z,49.94
2023-03-17T13:00:49.903Z,51.13
2023-03-17T13:03:56.960Z,51.55
2023-03-17T13:07:20.952Z,51.57
2023-03-17T13:10:44.138Z,51.94
2023-03-17T13:13:59.882Z,52.61
2023-03-17T13:17:28.438Z,52.13
2023-03-17T13:20:40.025Z,52.48
2023-03-17T13:23:46.378Z,53.12
2023-03-17T13:26:52.060Z,53.32
2023-03-17T13:29:58.083Z,53.49
2023-03-17T13:33:11.271Z,55.10
2023-03-17T13:36:36.733Z,53.93
2023-03-17T13:39:59.061Z,53.87
2023-03-17T13:43:21.782Z,54.18
2023-03-17T13:46:34.861Z,54.30
2023-03-17T13:49:38.522Z,54.01
2023-03-17T13:52:44.364Z,53.32
2023-03-17T13:56:27.098Z,53.83
2023-03-17T13:59:55.213Z,52.79
2023-03-17T14:03:05.081Z,51.16
2023-03-17T14:06:10.050Z,54.06
2023-03-17T14:09:20.067Z,52.57
2023-03-17T14:12:39.444Z,54.31
2023-03-17T14:16:04.321Z,53.92
2023-03-17T14:19:16.940Z,54.45
2023-03-17T14:22:22.770Z,55.04
2023-03-17T14:25:30.195Z,55.35
2023-03-17T14:28:35.693Z,55.16
2023-03-17T14:31:39.613Z,57.63
2023-03-17T14:34:44.755Z,55.83
2023-03-17T14:37:48.703Z,55.71
2023-03-17T14:41:01.138Z,56.18
2023-03-17T14:44:04.645Z,55.26
2023-03-17T14:47:14.570Z,54.85
2023-03-17T14:50:22.508Z,54.50
2023-03-17T14:53:27.626Z,55.03
2023-03-17T14:56:36.288Z,55.28
2023-03-17T14:59:41.901Z,55.16
2023-03-17T15:02:55.154Z,55.30
2023-03-17T15:06:09.061Z,55.32
2023-03-17T15:09:51.354Z,55.21
2023-03-17T15:13:03.119Z,56.66
2023-03-17T15:16:15.319Z,55.86
2023-03-17T15:19:22.172Z,55.76
2023-03-17T15:22:33.968Z,55.00
2023-03-17T15:25:39.839Z,54.68
2023-03-17T15:28:43.896Z,55.28
2023-03-17T15:31:48.014Z,55.39
2023-03-17T15:34:53.822Z,55.17
2023-03-17T15:37:58.101Z,55.86
2023-03-17T15:41:02.031Z,55.33
2023-03-17T15:44:06.154Z,54.91
2023-03-17T15:47:13.510Z,54.61
2023-03-17T15:50:29.653Z,55.34
2023-03-17T15:53:34.353Z,55.49
2023-03-17T15:56:39.501Z,57.84
2023-03-17T15:59:43.557Z,59.29
2023-03-17T16:02:49.064Z,58.40
2023-03-17T16:05:53.354Z,57.74
2023-03-17T16:08:57.381Z,58.34
2023-03-17T16:12:01.813Z,58.31
2023-03-17T16:15:20.165Z,57.75
2023-03-17T16:18:32.169Z,57.96
2023-03-17T16:21:35.580Z,57.56
2023-03-17T16:24:39.766Z,56.73
2023-03-17T16:27:44.144Z,58.33
2023-03-17T16:30:49.235Z,58.84
2023-03-17T16:33:54.443Z,59.72
2023-03-17T16:36:58.798Z,58.98
2023-03-17T16:40:03.288Z,60.02
2023-03-17T16:43:19.140Z,59.92
2023-03-17T16:46:29.009Z,60.00
2023-03-17T16:52:47.769Z,59.22
2023-03-17T16:55:55.371Z,60.07
2023-03-17T16:58:59.412Z,60.06
2023-03-17T17:02:03.458Z,61.41
2023-03-17T17:05:14.100Z,60.84
2023-03-17T17:08:18.139Z,60.76
2023-03-17T17:11:22.215Z,62.87
2023-03-17T17:14:25.917Z,63.71
2023-03-17T17:17:29.613Z,62.29
2023-03-17T17:20:35.329Z,63.01
2023-03-17T17:23:39.400Z,63.31
2023-03-17T17:26:43.552Z,64.02
2023-03-17T17:29:47.603Z,63.63
2023-03-17T17:32:51.342Z,64.44
2023-03-17T17:35:55.187Z,64.66
2023-03-17T17:38:59.165Z,64.61
2023-03-17T17:42:03.102Z,64.98
2023-03-17T17:45:07.364Z,64.14
2023-03-17T17:48:14.277Z,64.79
2023-03-17T17:51:18.654Z,65.38
2023-03-17T17:54:22.647Z,66.66
2023-03-17T17:57:26.684Z,65.69
2023-03-17T18:00:31.528Z,65.17
2023-03-17T18:03:35.608Z,65.55
2023-03-17T18:06:39.760Z,64.87
2023-03-17T18:09:43.263Z,64.82
2023-03-17T18:12:47.204Z,66.14
2023-03-17T18:15:51.275Z,64.41
2023-03-17T18:18:56.669Z,64.72
2023-03-17T18:22:02.189Z,64.47
2023-03-17T18:25:09.323Z,65.19
2023-03-17T18:28:14.202Z,64.11
2023-03-17T18:31:30.740Z,63.49
2023-03-17T18:34:52.951Z,63.76
2023-03-17T18:37:58.123Z,65.01
2023-03-17T18:41:02.709Z,65.49
2023-03-17T18:44:08.323Z,65.17
2023-03-17T18:47:13.232Z,65.47
2023-03-17T18:50:18.445Z,65.29
2023-03-17T18:53:23.203Z,66.46
2023-03-17T18:56:30.045Z,66.11
2023-03-17T18:59:34.136Z,66.87
2023-03-17T19:02:38.830Z,66.34
2023-03-17T19:05:43.090Z,65.94
2023-03-17T19:08:47.398Z,66.11
2023-03-17T19:11:51.513Z,67.06
2023-03-17T19:14:55.888Z,66.84
2023-03-17T19:17:59.927Z,66.31
2023-03-17T19:21:04.271Z,66.97
2023-03-17T19:24:11.854Z,67.63
2023-03-17T19:27:16.337Z,68.06
2023-03-17T19:30:20.973Z,67.04
2023-03-17T19:33:24.552Z,66.29
2023-03-17T19:36:28.157Z,66.41
2023-03-17T19:39:32.997Z,64.97
2023-03-17T19:42:37.297Z,65.94
2023-03-17T19:45:41.649Z,66.88
2023-03-17T19:48:45.789Z,66.61
2023-03-17T19:51:50.210Z,67.00
2023-03-17T19:54:54.193Z,66.24
2023-03-17T19:57:58.193Z,66.55
2023-03-17T20:01:02.242Z,66.18
2023-03-17T20:04:07.670Z,66.34
2023-03-17T20:07:12.216Z,64.50
2023-03-17T20:10:16.806Z,66.88
2023-03-17T20:13:22.107Z,67.37
2023-03-17T20:16:26.185Z,67.10
2023-03-17T20:19:30.313Z,68.12
2023-03-17T20:22:34.399Z,67.79
2023-03-17T20:25:38.739Z,66.48
2023-03-17T20:28:42.573Z,66.04
2023-03-17T20:31:46.916Z,68.22
2023-03-17T20:34:51.659Z,67.48
2023-03-17T20:37:58.136Z,66.57
2023-03-17T20:41:15.354Z,67.72
2023-03-17T20:44:20.201Z,68.24
2023-03-17T20:47:24.567Z,68.42
2023-03-17T20:50:28.888Z,68.18
2023-03-17T20:53:33.539Z,67.37
2023-03-17T20:56:38.249Z,67.89
2023-03-17T20:59:42.497Z,67.53
2023-03-17T21:02:46.995Z,68.07
2023-03-17T21:05:51.254Z,68.17
2023-03-17T21:08:55.906Z,68.91
2023-03-17T21:11:59.833Z,68.40
2023-03-17T21:15:04.389Z,68.66
2023-03-17T21:18:08.329Z,67.30
2023-03-17T21:21:12.620Z,67.31
2023-03-17T21:24:27.522Z,66.64
2023-03-17T21:27:31.489Z,67.00
2023-03-17T21:30:35.937Z,67.28
2023-03-17T21:33:40.107Z,67.19
2023-03-17T21:36:44.148Z,67.07
2023-03-17T21:39:48.471Z,67.65
2023-03-17T21:42:52.539Z,65.93
2023-03-17T21:45:57.034Z,67.34
2023-03-17T21:49:01.252Z,65.32
2023-03-17T21:52:05.618Z,64.51
2023-03-17T21:55:10.275Z,65.90
2023-03-17T21:58:15.360Z,65.33
2023-03-17T22:01:19.796Z,66.11
2023-03-17T22:04:23.717Z,66.48
2023-03-17T22:07:28.892Z,66.78
2023-03-17T22:10:33.056Z,63.48
2023-03-17T22:13:37.961Z,63.70
2023-03-17T22:16:41.735Z,65.72
2023-03-17T22:19:45.262Z,68.61
2023-03-17T22:22:49.094Z,63.78
2023-03-17T22:25:53.493Z,59.28
2023-03-17T22:28:56.964Z,57.86
2023-03-17T22:32:00.732Z,52.72
2023-03-17T22:35:05.328Z,50.23
2023-03-17T22:38:13.877Z,45.25
2023-03-17T22:41:19.500Z,51.41
2023-03-17T22:44:23.563Z,50.71
2023-03-17T22:47:27.572Z,49.01
2023-03-17T22:50:31.931Z,48.60
2023-03-17T22:53:39.398Z,51.67
2023-03-17T22:56:43.053Z,56.65
2023-03-17T22:59:47.108Z,51.92
2023-03-17T23:02:51.395Z,49.88
2023-03-17T23:05:57.822Z,47.57
2023-03-17T23:09:01.426Z,45.73
2023-03-17T23:12:05.844Z,45.07
2023-03-17T23:15:10.884Z,45.39
2023-03-17T23:18:14.959Z,41.92
2023-03-17T23:21:28.500Z,41.06
2023-03-17T23:24:33.040Z,42.60
2023-03-17T23:27:37.595Z,47.07
2023-03-17T23:30:42.311Z,42.95
2023-03-17T23:33:47.308Z,46.79
2023-03-17T23:36:51.499Z,45.79
2023-03-17T23:39:55.829Z,43.89
2023-03-17T23:42:59.811Z,42.93
2023-03-17T23:46:05.113Z,41.21
2023-03-17T23:49:09.272Z,39.82
2023-03-17T23:52:13.362Z,35.11
2023-03-17T23:55:18.243Z,40.29
2023-03-17T23:58:22.835Z,37.71
